createdAt,value
2023-05-10T00:00:18.976Z,4.736111
2023-05-10T00:05:18.521Z,4.777778
2023-05-10T00:10:18.700Z,4.682870
2023-05-10T00:15:18.504Z,4.907407
2023-05-10T00:20:18.784Z,5.182870
2023-05-10T00:25:18.737Z,5.442130
2023-05-10T00:30:18.622Z,5.409722
2023-05-10T00:35:18.496Z,4.814815
2023-05-10T00:40:18.710Z,4.715556
2023-05-10T00:45:18.822Z,4.668981
2023-05-10T00:50:18.925Z,4.520833
2023-05-10T00:55:18.637Z,4.712963
2023-05-10T01:00:18.544Z,4.849537
2023-05-10T01:05:18.771Z,5.053241
2023-05-10T01:10:18.714Z,5.210648
2023-05-10T01:15:18.518Z,5.317130
2023-05-10T01:20:18.814Z,5.284722
2023-05-10T01:25:18.573Z,4.620370
2023-05-10T01:30:18.418Z,4.398148
2023-05-10T01:35:18.428Z,4.414352
2023-05-10T01:40:19.070Z,4.569444
2023-05-10T01:45:18.627Z,4.393519
2023-05-10T01:50:19.087Z,4.342593
2023-05-10T01:55:18.874Z,4.444444
2023-05-10T02:00:18.740Z,4.618056
2023-05-10T02:05:18.964Z,4.458333
2023-05-10T02:10:19.041Z,4.282407
2023-05-10T02:15:18.537Z,4.175926
2023-05-10T02:20:18.584Z,4.043981
2023-05-10T02:25:18.573Z,3.988426
2023-05-10T02:30:18.570Z,3.879630
2023-05-10T02:35:18.788Z,3.888889
2023-05-10T02:40:18.952Z,3.905093
2023-05-10T02:45:18.611Z,3.946759
2023-05-10T02:50:18.579Z,3.837963
2023-05-10T02:55:18.571Z,3.856481
2023-05-10T03:00:18.563Z,3.722222
2023-05-10T03:05:18.365Z,3.425926
2023-05-10T03:10:18.763Z,3.391204
2023-05-10T03:15:18.346Z,3.361111
2023-05-10T03:20:19.208Z,3.395833
2023-05-10T03:25:18.481Z,3.768519
2023-05-10T03:30:18.893Z,3.643519
2023-05-10T03:35:18.567Z,3.756944
2023-05-10T03:40:18.866Z,3.467593
2023-05-10T03:45:18.717Z,3.356481
2023-05-10T03:50:18.655Z,3.425926
2023-05-10T03:55:18.508Z,3.564815
2023-05-10T04:00:18.845Z,4.034722
2023-05-10T04:05:18.813Z,4.145833
2023-05-10T04:10:18.956Z,3.844907
2023-05-10T04:15:18.878Z,4.296296
2023-05-10T04:20:19.027Z,4.337778
2023-05-10T04:25:18.556Z,4.761574
2023-05-10T04:30:18.584Z,5.215278
2023-05-10T04:35:19.152Z,5.391204
2023-05-10T04:40:19.026Z,5.583333
2023-05-10T04:45:18.539Z,5.995370
2023-05-10T04:50:18.985Z,6.326389
2023-05-10T04:55:19.139Z,6.793981
2023-05-10T05:00:18.599Z,7.372685
2023-05-10T05:05:18.385Z,7.851852
2023-05-10T05:10:19.039Z,8.127315
2023-05-10T05:15:18.418Z,8.615741
2023-05-10T05:20:19.075Z,9.435185
2023-05-10T05:25:18.357Z,10.182870
2023-05-10T05:30:18.746Z,10.682870
2023-05-10T05:35:18.944Z,11.347222
2023-05-10T05:40:18.451Z,12.016204
2023-05-10T05:45:18.795Z,12.407407
2023-05-10T05:50:18.804Z,12.546296
2023-05-10T05:55:18.759Z,12.782407
2023-05-10T06:00:18.318Z,12.967593
2023-05-10T06:05:18.919Z,13.208333
2023-05-10T06:10:18.500Z,13.372685
2023-05-10T06:15:18.703Z,13.567130
2023-05-10T06:20:18.461Z,13.773148
2023-05-10T06:25:18.753Z,13.905093
2023-05-10T06:30:18.447Z,14.067130
2023-05-10T06:35:18.817Z,14.233796
2023-05-10T06:40:18.670Z,14.421296
2023-05-10T06:45:18.980Z,14.578704
2023-05-10T06:50:18.883Z,14.678241
2023-05-10T06:55:19.007Z,14.819444
2023-05-10T07:00:20.454Z,15.097222
2023-05-10T07:05:19.373Z,15.263889
2023-05-10T07:10:19.621Z,15.537037
2023-05-10T07:15:20.979Z,15.828704
2023-05-10T07:20:18.951Z,16.134259
2023-05-10T07:25:18.727Z,16.333333
2023-05-10T07:30:20.283Z,16.527778
2023-05-10T07:35:18.585Z,16.675926
2023-05-10T07:40:18.444Z,16.928241
2023-05-10T07:45:18.979Z,17.046296
2023-05-10T07:50:18.391Z,17.062500
2023-05-10T07:55:19.129Z,16.828704
2023-05-10T08:00:18.414Z,16.759259
2023-05-10T08:05:18.793Z,16.708333
2023-05-10T08:10:18.575Z,16.979167
2023-05-10T08:15:18.984Z,17.206019
2023-05-10T08:20:18.526Z,17.553241
2023-05-10T08:25:18.695Z,17.506944
2023-05-10T08:30:18.350Z,17.655093
2023-05-10T08:35:19.169Z,17.863426
2023-05-10T08:40:18.443Z,18.187500
2023-05-10T08:45:18.703Z,18.321759
2023-05-10T08:50:18.497Z,18.314815
2023-05-10T08:55:18.574Z,18.523148
2023-05-10T09:00:18.387Z,18.386574
2023-05-10T09:05:18.816Z,18.326389
2023-05-10T09:10:18.497Z,18.231481
2023-05-10T09:15:19.146Z,18.631944
2023-05-10T09:20:18.757Z,18.469907
2023-05-10T09:25:18.761Z,18.337963
2023-05-10T09:30:18.808Z,18.259259
2023-05-10T09:35:18.852Z,18.377315
2023-05-10T09:40:19.190Z,18.076389
2023-05-10T09:45:18.811Z,17.972222
2023-05-10T09:50:18.621Z,18.430556
2023-05-10T09:55:18.750Z,18.025463
2023-05-10T10:00:18.330Z,17.618056
2023-05-10T10:05:18.623Z,17.516204
2023-05-10T10:10:18.534Z,17.567130
2023-05-10T10:15:18.677Z,17.254630
2023-05-10T10:20:18.638Z,17.138889
2023-05-10T10:25:18.706Z,17.379630
2023-05-10T10:30:18.643Z,17.351852
2023-05-10T10:35:19.107Z,17.127315
2023-05-10T10:40:18.276Z,16.844907
2023-05-10T10:45:18.985Z,16.638889
2023-05-10T10:50:18.848Z,16.780093
2023-05-10T10:55:18.861Z,16.759259
2023-05-10T11:00:18.576Z,16.553241
2023-05-10T11:05:18.451Z,16.458333
2023-05-10T11:10:18.561Z,16.805556
2023-05-10T11:15:18.534Z,16.530093
2023-05-10T11:20:18.883Z,16.384259
2023-05-10T11:25:18.438Z,16.289352
2023-05-10T11:30:18.796Z,16.331111
2023-05-10T11:35:18.334Z,16.071759
2023-05-10T11:40:18.692Z,15.953704
2023-05-10T11:45:18.520Z,16.127315
2023-05-10T11:50:18.654Z,16.314815
2023-05-10T11:55:18.609Z,16.354167
2023-05-10T12:00:18.684Z,16.136574
2023-05-10T12:05:18.246Z,16.250000
2023-05-10T12:10:18.785Z,16.043981
2023-05-10T12:15:18.841Z,16.032407
2023-05-10T12:20:18.514Z,15.993056
2023-05-10T12:25:18.565Z,15.752315
2023-05-10T12:30:18.852Z,16.275463
2023-05-10T12:35:18.522Z,15.909722
2023-05-10T12:40:19.184Z,15.618056
2023-05-10T12:45:18.630Z,15.118056
2023-05-10T12:50:18.835Z,14.736111
2023-05-10T12:55:18.908Z,14.662037
2023-05-10T13:00:18.431Z,14.766204
2023-05-10T13:05:18.659Z,14.631944
2023-05-10T13:10:18.902Z,14.402778
2023-05-10T13:15:18.324Z,14.324074
2023-05-10T13:20:18.610Z,14.409722
2023-05-10T13:25:18.374Z,14.469907
2023-05-10T13:30:18.534Z,14.324074
2023-05-10T13:35:18.261Z,14.247685
2023-05-10T13:40:18.596Z,14.328704
2023-05-10T13:45:18.463Z,14.358796
2023-05-10T13:50:18.524Z,14.486111
2023-05-10T13:55:18.663Z,14.474537
2023-05-10T14:00:18.325Z,14.497685
2023-05-10T14:05:19.309Z,14.578704
2023-05-10T14:10:18.510Z,14.668981
2023-05-10T14:15:18.577Z,14.652778
2023-05-10T14:20:18.252Z,14.694444
2023-05-10T14:25:19.038Z,14.759259
2023-05-10T14:30:18.236Z,14.833333
2023-05-10T14:35:19.955Z,14.773148
2023-05-10T14:40:18.408Z,14.724537
2023-05-10T14:45:18.550Z,14.717593
2023-05-10T14:50:32.337Z,14.807870
2023-05-10T14:55:18.490Z,14.895833
2023-05-10T15:00:18.397Z,14.958333
2023-05-10T15:05:18.589Z,15.048611
2023-05-10T15:10:18.485Z,15.055556
2023-05-10T15:15:18.337Z,15.055556
2023-05-10T15:20:18.263Z,15.013889
2023-05-10T15:25:18.770Z,15.000000
2023-05-10T15:30:18.258Z,14.986111
2023-05-10T15:35:19.035Z,14.974537
2023-05-10T15:40:18.596Z,14.997685
2023-05-10T15:45:18.978Z,14.974537
2023-05-10T15:50:19.075Z,14.958333
2023-05-10T15:55:18.980Z,15.000000
2023-05-10T16:00:18.582Z,15.011574
2023-05-10T16:05:18.347Z,15.025463
2023-05-10T16:10:18.224Z,15.030093
2023-05-10T16:15:18.461Z,15.000000
2023-05-10T16:20:18.344Z,15.030093
2023-05-10T16:25:18.513Z,15.037037
2023-05-10T16:30:18.552Z,14.983333
2023-05-10T16:35:18.439Z,14.877315
2023-05-10T16:40:18.536Z,14.893519
2023-05-10T16:45:18.596Z,14.944444
2023-05-10T16:50:18.246Z,14.949074
2023-05-10T16:55:18.528Z,14.918981
2023-05-10T17:00:18.103Z,14.865741
2023-05-10T17:05:18.738Z,14.840278
2023-05-10T17:10:18.336Z,14.875000
2023-05-10T17:15:18.440Z,14.881944
2023-05-10T17:20:18.124Z,14.831019
2023-05-10T17:25:18.494Z,14.678241
2023-05-10T17:30:18.527Z,14.613426
2023-05-10T17:35:18.516Z,14.604167
2023-05-10T17:40:18.226Z,14.585648
2023-05-10T17:45:18.421Z,14.509259
2023-05-10T17:50:18.340Z,14.375000
2023-05-10T17:55:18.577Z,14.284722
2023-05-10T18:00:18.375Z,14.087963
2023-05-10T18:05:18.601Z,13.856481
2023-05-10T18:10:18.481Z,13.620000
2023-05-10T18:15:18.545Z,13.608796
2023-05-10T18:20:18.729Z,13.687500
2023-05-10T18:25:18.452Z,13.877315
2023-05-10T18:30:18.627Z,13.932870
2023-05-10T18:35:18.674Z,13.773148
2023-05-10T18:40:18.609Z,13.585648
2023-05-10T18:45:18.772Z,13.444444
2023-05-10T18:50:18.103Z,13.319444
2023-05-10T18:55:18.440Z,13.233796
2023-05-10T19:00:19.264Z,13.240741
2023-05-10T19:05:18.564Z,13.208333
2023-05-10T19:10:18.158Z,13.067130
2023-05-10T19:15:20.124Z,12.916667
2023-05-10T19:20:18.198Z,12.877315
2023-05-10T19:25:18.838Z,12.791667
2023-05-10T19:30:18.264Z,12.821759
2023-05-10T19:35:18.334Z,12.844907
2023-05-10T19:40:18.197Z,12.884259
2023-05-10T19:45:18.401Z,12.682870
2023-05-10T19:50:18.274Z,12.550926
2023-05-10T19:55:18.777Z,12.615741
2023-05-10T20:05:18.364Z,12.647343
2023-05-10T20:10:18.401Z,12.542222
2023-05-10T20:15:18.404Z,12.472222
2023-05-10T20:20:18.827Z,12.451389
2023-05-10T20:25:18.281Z,12.488426
2023-05-10T20:30:18.415Z,12.611111
2023-05-10T20:35:18.340Z,12.761574
2023-05-10T20:40:18.570Z,12.819444
2023-05-10T20:45:18.114Z,12.743056
2023-05-10T20:50:18.478Z,12.432870
2023-05-10T20:55:18.290Z,12.312500
2023-05-10T21:00:18.315Z,12.414352
2023-05-10T21:05:18.939Z,12.442130
2023-05-10T21:10:18.646Z,12.474537
2023-05-10T21:15:18.648Z,12.530093
2023-05-10T21:20:19.049Z,12.238426
2023-05-10T21:25:18.586Z,12.173611
2023-05-10T21:30:18.300Z,12.157407
2023-05-10T21:35:18.078Z,12.101852
2023-05-10T21:40:18.801Z,12.009259
2023-05-10T21:45:18.098Z,11.979167
2023-05-10T21:50:18.388Z,11.918981
2023-05-10T21:55:18.075Z,12.055556
2023-05-10T22:00:18.590Z,12.032407
2023-05-10T22:05:18.179Z,11.902778
2023-05-10T22:10:18.615Z,11.877315
2023-05-10T22:15:18.203Z,11.750000
2023-05-10T22:20:18.433Z,11.599537
2023-05-10T22:25:18.425Z,11.662037
2023-05-10T22:30:18.448Z,11.812500
2023-05-10T22:35:18.220Z,11.997685
2023-05-10T22:40:18.390Z,12.034722
2023-05-10T22:45:18.293Z,11.798611
2023-05-10T22:50:18.332Z,11.659722
2023-05-10T22:55:18.172Z,11.856481
2023-05-10T23:00:18.447Z,11.898148
2023-05-10T23:05:18.045Z,11.759259
2023-05-10T23:10:18.814Z,11.902778
2023-05-10T23:15:18.047Z,11.902222
2023-05-10T23:20:18.366Z,11.761574
2023-05-10T23:25:18.177Z,11.562500
2023-05-10T23:30:18.775Z,11.486111
2023-05-10T23:35:18.127Z,11.585648
2023-05-10T23:40:18.664Z,11.560185
2023-05-10T23:45:18.546Z,11.585648
2023-05-10T23:50:18.357Z,11.560185
2023-05-10T23:55:18.604Z,11.525463
